Time;durP1;ratioP1;P1;durP2;ratioP2;P2;SDS_P1;SDS_P2;PMS_P1;PMS_P2;Temp;Humidity;BMP_temperature;BMP_pressure;BME280_temperature;BME280_humidity;BME280_pressure;Samples;Min_cycle;Max_cycle;Signal;HPM_P1;HPM_P2
2023/07/08 00:00:45;;;;;;;1.95;1.00;;;;;;;21.14;64.74;101451.03;4864914;29;20078;-66
2023/07/08 00:03:31;;;;;;;1.83;1.20;;;;;;;21.04;65.77;101456.66;4871804;29;20033;-66
2023/07/08 00:05:56;;;;;;;1.40;0.90;;;;;;;20.93;66.59;101444.97;4805772;29;20687;-68
2023/07/08 00:08:22;;;;;;;1.30;1.00;;;;;;;20.87;66.46;101452.06;4810397;29;20130;-66
2023/07/08 00:10:47;;;;;;;2.78;1.00;;;;;;;20.88;66.62;101443.47;4786383;29;20059;-65
2023/07/08 00:13:13;;;;;;;1.77;1.05;;;;;;;20.88;67.00;101440.72;4800162;29;20091;-66
2023/07/08 00:15:40;;;;;;;1.05;0.95;;;;;;;21.00;66.47;101436.69;4782398;29;20027;-65
2023/07/08 00:18:13;;;;;;;3.38;0.88;;;;;;;21.05;65.38;101442.53;4794303;29;20134;-66
2023/07/08 00:20:44;;;;;;;1.55;1.05;;;;;;;20.91;65.64;101439.09;4796537;29;20069;-66
2023/07/08 00:23:10;;;;;;;;;;;;;;;20.92;65.52;101440.69;4793442;29;20159;-66
2023/07/08 00:25:36;;;;;;;1.40;0.80;;;;;;;20.87;66.09;101430.94;4834364;29;19912;-66
2023/07/08 00:28:04;;;;;;;2.75;1.02;;;;;;;20.84;66.49;101431.75;4840392;29;20158;-66
2023/07/08 00:30:30;;;;;;;1.65;0.98;;;;;;;20.79;66.18;101434.91;4858797;29;20601;-66
2023/07/08 00:32:57;;;;;;;2.47;1.10;;;;;;;20.77;66.92;101431.78;4842785;29;20125;-66
2023/07/08 00:35:34;;;;;;;1.27;0.90;;;;;;;20.85;65.93;101438.00;4843646;29;20045;-66
2023/07/08 00:38:12;;;;;;;1.45;1.08;;;;;;;20.93;65.79;101428.53;4863678;29;20041;-66
2023/07/08 00:40:47;;;;;;;0.77;0.60;;;;;;;20.83;65.76;101423.94;4858697;29;20748;-65
2023/07/08 00:43:13;;;;;;;1.50;0.90;;;;;;;20.78;66.53;101436.09;4904986;29;20125;-65
2023/07/08 00:45:45;;;;;;;1.90;1.30;;;;;;;20.79;66.32;101434.16;4937954;29;20054;-66
2023/07/08 00:48:22;;;;;;;1.27;0.65;;;;;;;20.67;66.38;101429.94;4950818;29;20035;-66
2023/07/08 00:50:48;;;;;;;1.25;1.10;;;;;;;20.50;67.85;101433.59;4944550;29;20043;-65
2023/07/08 00:53:26;;;;;;;2.83;1.25;;;;;;;20.54;68.15;101431.59;4952382;29;20030;-66
2023/07/08 00:56:10;;;;;;;0.63;0.63;;;;;;;20.29;68.55;101428.28;4956144;29;20032;-65
2023/07/08 00:58:44;;;;;;;1.38;0.70;;;;;;;20.06;70.14;101428.00;4950796;29;20061;-65
2023/07/08 01:01:10;;;;;;;1.42;1.00;;;;;;;20.05;70.58;101431.94;4954852;29;20043;-66
2023/07/08 01:03:45;;;;;;;1.38;0.95;;;;;;;19.93;71.33;101429.66;4954850;29;20677;-65
2023/07/08 01:06:11;;;;;;;1.00;0.70;;;;;;;19.75;71.75;101421.53;4949463;29;20035;-66
2023/07/08 01:08:36;;;;;;;1.48;1.00;;;;;;;19.78;71.99;101418.78;4954772;29;20460;-67
2023/07/08 01:11:04;;;;;;;1.38;0.98;;;;;;;19.72;71.81;101423.09;4938044;29;20039;-66
2023/07/08 01:13:36;;;;;;;2.08;1.30;;;;;;;19.68;71.72;101427.84;4954941;29;20043;-66
2023/07/08 01:16:02;;;;;;;;;;;;;;;19.63;71.84;101421.97;4954089;29;20067;-66
2023/07/08 01:18:28;;;;;;;1.20;0.73;;;;;;;19.60;72.58;101417.31;4953675;29;19961;-65
2023/07/08 01:20:55;;;;;;;3.00;1.00;;;;;;;19.66;72.43;101418.47;4931004;29;20067;-66
2023/07/08 01:23:21;;;;;;;2.03;1.05;;;;;;;19.41;73.27;101415.03;4935020;29;20037;-65
2023/07/08 01:25:47;;;;;;;1.30;1.00;;;;;;;19.33;73.73;101416.25;4955379;29;20031;-65
2023/07/08 01:28:13;;;;;;;1.55;1.10;;;;;;;19.55;73.65;101415.75;4931145;29;20465;-65
2023/07/08 01:30:42;;;;;;;2.60;1.27;;;;;;;19.56;73.43;101416.53;4946792;29;20043;-66
2023/07/08 01:33:17;;;;;;;1.00;0.80;;;;;;;19.72;72.75;101408.66;4954653;29;20050;-66
2023/07/08 01:35:43;;;;;;;1.70;1.13;;;;;;;19.82;72.04;101409.78;4931397;29;20114;-66
2023/07/08 01:38:12;;;;;;;2.97;1.08;;;;;;;19.83;71.86;101411.34;4931600;29;20563;-67
2023/07/08 01:40:48;;;;;;;2.20;0.90;;;;;;;19.91;70.66;101401.91;4934866;29;20047;-67
2023/07/08 01:43:13;;;;;;;2.47;1.67;;;;;;;19.93;70.29;101399.56;4952423;29;20028;-66
2023/07/08 01:45:40;;;;;;;3.83;1.17;;;;;;;19.72;70.61;101395.75;4935032;29;20039;-66
2023/07/08 01:48:10;;;;;;;0.93;0.70;;;;;;;19.94;70.22;101401.13;4937501;29;20038;-66
2023/07/08 01:50:57;;;;;;;1.25;0.82;;;;;;;20.08;69.99;101403.75;4937792;29;20481;-65
2023/07/08 01:53:32;;;;;;;1.15;1.05;;;;;;;20.14;69.69;101399.44;4940716;29;20074;-66
2023/07/08 01:55:59;;;;;;;1.58;1.02;;;;;;;20.16;69.30;101405.28;4953248;29;20038;-67
2023/07/08 01:58:26;;;;;;;3.15;1.35;;;;;;;20.18;68.69;101403.75;4948571;29;20050;-65
2023/07/08 02:01:12;;;;;;;1.60;0.93;;;;;;;20.22;68.54;101398.22;4937433;29;20098;-66
2023/07/08 02:03:38;;;;;;;1.48;0.82;;;;;;;20.12;69.57;101397.09;4894614;29;20055;-65
2023/07/08 02:06:06;;;;;;;1.80;1.00;;;;;;;19.93;69.65;101397.63;4877183;29;20044;-65
2023/07/08 02:08:32;;;;;;;2.13;0.90;;;;;;;19.98;69.47;101393.66;4878575;29;20568;-65
2023/07/08 02:10:58;;;;;;;2.13;1.25;;;;;;;19.86;70.49;101388.69;4862742;29;20044;-65
2023/07/08 02:13:24;;;;;;;1.90;0.93;;;;;;;19.92;70.27;101398.78;4892716;29;20041;-66
2023/07/08 02:15:51;;;;;;;1.98;1.05;;;;;;;19.82;70.26;101393.38;4894945;29;20052;-65
2023/07/08 02:18:18;;;;;;;1.40;0.98;;;;;;;19.79;69.92;101397.69;4894259;29;20061;-65
2023/07/08 02:20:45;;;;;;;1.17;1.02;;;;;;;19.85;70.61;101392.56;4895414;29;20077;-65
2023/07/08 02:23:10;;;;;;;1.48;1.10;;;;;;;19.96;69.89;101385.09;4878058;29;20425;-66
2023/07/08 02:25:36;;;;;;;1.25;1.00;;;;;;;19.85;70.50;101387.91;4895202;29;20037;-66
2023/07/08 02:28:01;;;;;;;5.07;1.05;;;;;;;19.88;70.35;101380.84;4873202;29;20053;-66
2023/07/08 02:30:47;;;;;;;1.30;1.08;;;;;;;19.92;70.23;101392.56;4893225;29;20223;-65
2023/07/08 02:33:14;;;;;;;1.23;0.90;;;;;;;19.97;70.48;101386.66;4819150;29;20053;-65
2023/07/08 02:35:40;;;;;;;5.53;0.90;;;;;;;19.90;70.72;101392.19;4836649;29;20502;-67
2023/07/08 02:38:05;;;;;;;1.70;1.00;;;;;;;19.93;70.25;101389.41;4838546;29;20050;-68
2023/07/08 02:40:31;;;;;;;1.77;0.93;;;;;;;19.87;70.55;101388.28;4853862;29;20045;-65
2023/07/08 02:42:56;;;;;;;1.10;1.00;;;;;;;19.84;70.76;101393.78;4893767;29;20045;-65
2023/07/08 02:45:22;;;;;;;1.52;1.05;;;;;;;19.90;70.75;101390.19;4891393;29;20410;-68
2023/07/08 02:47:47;;;;;;;0.75;0.73;;;;;;;19.86;71.12;101394.91;4931972;23;21260;-66
2023/07/08 02:50:13;;;;;;;1.30;0.93;;;;;;;19.70;71.47;101406.31;4972477;28;20049;-66
2023/07/08 02:52:38;;;;;;;1.13;0.93;;;;;;;19.66;72.00;101402.84;4970904;28;20049;-66
2023/07/08 02:55:04;;;;;;;1.58;0.82;;;;;;;19.70;71.70;101400.09;5003100;28;20097;-65
2023/07/08 02:57:30;;;;;;;0.68;0.68;;;;;;;19.52;72.33;101411.09;4997076;28;20057;-65
2023/07/08 02:59:55;;;;;;;1.55;1.10;;;;;;;19.55;72.24;101402.09;4991942;28;20034;-66
2023/07/08 03:02:22;;;;;;;0.80;0.80;;;;;;;19.55;72.26;101396.63;4973353;28;20030;-66
2023/07/08 03:04:49;;;;;;;1.52;1.00;;;;;;;19.41;72.76;101396.72;4992034;28;20026;-66
2023/07/08 03:07:16;;;;;;;1.15;0.77;;;;;;;19.47;72.61;101394.34;4968562;28;20037;-66
2023/07/08 03:09:42;;;;;;;1.50;0.85;;;;;;;19.42;72.82;101394.72;4974307;28;20518;-66
2023/07/08 03:12:09;;;;;;;1.33;1.02;;;;;;;19.34;72.54;101393.19;4973076;28;20122;-66
2023/07/08 03:14:36;;;;;;;2.85;1.05;;;;;;;19.49;72.12;101395.47;4990575;28;20033;-65
2023/07/08 03:17:02;;;;;;;1.10;0.80;;;;;;;19.62;71.86;101393.09;4980994;28;20022;-65
2023/07/08 03:19:27;;;;;;;1.30;1.10;;;;;;;19.70;71.36;101391.88;4991584;28;20117;-66
2023/07/08 03:21:53;;;;;;;1.08;0.80;;;;;;;19.74;70.65;101398.13;4973400;28;20113;-65
2023/07/08 03:24:19;;;;;;;1.77;1.05;;;;;;;19.77;70.63;101398.09;4973921;28;20034;-65
2023/07/08 03:26:45;;;;;;;0.73;0.73;;;;;;;19.78;70.42;101399.63;4973931;28;20117;-68
2023/07/08 03:29:15;;;;;;;1.95;1.33;;;;;;;19.68;71.12;101397.75;4987344;28;20041;-66
2023/07/08 03:31:42;;;;;;;1.55;0.90;;;;;;;19.62;71.57;101401.28;4978399;28;20391;-65
2023/07/08 03:34:12;;;;;;;1.25;1.15;;;;;;;19.64;71.69;101393.47;4972734;28;20030;-65
2023/07/08 03:36:48;;;;;;;1.45;1.02;;;;;;;19.67;71.52;101398.91;4988707;28;20037;-66
2023/07/08 03:39:20;;;;;;;1.33;0.88;;;;;;;19.69;71.09;101396.56;4971976;28;20133;-66
2023/07/08 03:41:47;;;;;;;1.85;1.10;;;;;;;19.78;70.61;101399.63;4976281;28;20620;-65
2023/07/08 03:44:12;;;;;;;1.08;0.82;;;;;;;19.81;70.47;101400.81;4970142;28;20089;-65
2023/07/08 03:46:39;;;;;;;1.80;1.10;;;;;;;19.84;70.41;101400.00;4971827;28;20039;-65
2023/07/08 03:49:05;;;;;;;1.88;1.20;;;;;;;19.76;70.36;101391.06;4960151;28;20085;-66
2023/07/08 03:51:35;;;;;;;2.30;1.60;;;;;;;19.70;71.08;101389.16;4954280;28;20066;-66
2023/07/08 03:54:01;;;;;;;1.23;1.10;;;;;;;19.75;71.09;101392.25;4956186;28;20054;-66
2023/07/08 03:56:31;;;;;;;1.50;0.93;;;;;;;19.86;70.50;101391.41;4977765;28;20088;-65
2023/07/08 03:58:58;;;;;;;1.63;1.02;;;;;;;19.86;71.02;101388.69;4972942;28;20084;-66
2023/07/08 04:01:25;;;;;;;1.95;1.00;;;;;;;19.75;71.14;101403.19;4957859;28;20026;-66
2023/07/08 04:03:56;;;;;;;1.13;0.98;;;;;;;19.82;70.79;101399.63;4965648;28;20520;-64
2023/07/08 04:06:22;;;;;;;;;;;;;;;19.85;70.32;101395.31;4986351;28;20145;-64
2023/07/08 04:08:49;;;;;;;1.45;0.85;;;;;;;19.86;70.35;101383.22;4998948;28;20373;-64
2023/07/08 04:11:18;;;;;;;3.38;1.35;;;;;;;19.82;70.61;101383.25;4990883;28;20042;-64
2023/07/08 04:13:44;;;;;;;1.58;1.00;;;;;;;19.90;70.39;101381.25;4990216;28;20034;-64
2023/07/08 04:16:18;;;;;;;1.55;0.90;;;;;;;19.78;70.31;101379.75;4989608;28;20039;-63
2023/07/08 04:18:44;;;;;;;2.78;0.93;;;;;;;19.84;70.13;101391.78;4989555;28;20216;-63
2023/07/08 04:21:09;;;;;;;2.28;1.17;;;;;;;19.83;70.61;101392.19;4990194;28;20113;-65
2023/07/08 04:23:34;;;;;;;1.85;1.17;;;;;;;19.89;70.46;101398.81;4989851;28;20030;-64
2023/07/08 04:26:01;;;;;;;0.90;0.75;;;;;;;19.99;70.26;101387.03;4984682;28;20406;-64
2023/07/08 04:28:26;;;;;;;1.15;1.00;;;;;;;19.98;70.48;101382.72;5000358;28;20033;-63
2023/07/08 04:30:52;;;;;;;1.58;0.77;;;;;;;20.08;70.17;101390.09;4990422;28;20443;-64
2023/07/08 04:33:18;;;;;;;0.88;0.82;;;;;;;20.10;70.02;101391.25;4989575;28;20634;-63
2023/07/08 04:35:45;;;;;;;1.45;1.13;;;;;;;20.12;70.26;101390.84;4990270;28;20034;-65
2023/07/08 04:38:22;;;;;;;1.17;0.90;;;;;;;20.06;70.10;101395.97;4990033;28;20038;-63
2023/07/08 04:40:49;;;;;;;1.05;0.95;;;;;;;20.12;69.72;101391.63;4987495;28;20060;-64
2023/07/08 04:43:15;;;;;;;1.30;0.82;;;;;;;20.19;69.10;101391.59;4990329;28;20034;-64
2023/07/08 04:45:42;;;;;;;1.35;0.90;;;;;;;20.12;69.74;101391.63;4993228;28;20038;-65
2023/07/08 04:48:13;;;;;;;1.27;0.88;;;;;;;20.15;69.94;101390.06;4992738;28;20112;-64
2023/07/08 04:50:43;;;;;;;1.38;1.05;;;;;;;20.21;69.41;101393.97;4991208;28;20048;-66
2023/07/08 04:53:09;;;;;;;0.67;0.67;;;;;;;20.09;69.73;101392.41;4989447;28;20394;-66
2023/07/08 04:55:37;;;;;;;0.93;0.90;;;;;;;20.24;69.70;101393.94;4991384;28;20542;-64
2023/07/08 04:58:03;;;;;;;1.45;0.80;;;;;;;20.34;69.63;101375.88;4990121;28;20038;-63
2023/07/08 05:00:28;;;;;;;1.05;0.75;;;;;;;20.37;69.18;101375.84;4985138;28;20089;-64
2023/07/08 05:02:54;;;;;;;1.85;0.88;;;;;;;20.34;69.18;101381.34;4993428;28;20041;-63
2023/07/08 05:05:20;;;;;;;1.20;0.88;;;;;;;20.55;68.31;101381.16;4995973;28;20046;-62
2023/07/08 05:07:45;;;;;;;0.90;0.73;;;;;;;20.60;68.18;101386.19;4973240;28;20022;-64
2023/07/08 05:10:11;;;;;;;0.85;0.75;;;;;;;20.63;67.79;101388.13;4971863;28;20037;-62
2023/07/08 05:12:37;;;;;;;1.35;0.70;;;;;;;20.68;67.92;101393.16;4988306;28;20030;-65
2023/07/08 05:15:03;;;;;;;0.95;0.73;;;;;;;20.75;68.06;101389.59;4992227;28;20429;-63
2023/07/08 05:17:29;;;;;;;1.08;0.98;;;;;;;21.04;67.41;101386.16;4998075;28;20045;-65
2023/07/08 05:19:57;;;;;;;1.10;0.98;;;;;;;21.63;64.67;101378.44;5000995;28;20034;-65
2023/07/08 05:22:25;;;;;;;0.70;0.70;;;;;;;22.19;61.92;101387.81;5001093;28;20049;-64
2023/07/08 05:24:52;;;;;;;1.65;1.10;;;;;;;22.72;59.54;101382.28;4990682;28;20038;-63
2023/07/08 05:27:19;;;;;;;1.25;0.90;;;;;;;23.35;57.76;101383.03;4981674;28;20140;-64
2023/07/08 05:29:46;;;;;;;1.20;0.93;;;;;;;23.65;56.38;101393.81;4998043;28;20023;-64
2023/07/08 05:32:11;;;;;;;0.90;0.70;;;;;;;24.08;54.92;101388.91;4993078;28;20117;-66
2023/07/08 05:34:37;;;;;;;3.13;0.85;;;;;;;24.37;54.87;101389.00;4972850;28;20179;-63
2023/07/08 05:37:03;;;;;;;1.00;0.77;;;;;;;24.36;53.77;101390.22;4993581;28;20467;-64
2023/07/08 05:39:30;;;;;;;1.63;0.85;;;;;;;24.62;53.70;101394.69;4993090;28;20454;-64
2023/07/08 05:41:55;;;;;;;1.20;0.95;;;;;;;24.88;54.09;101390.88;4997945;28;20030;-63
2023/07/08 05:44:21;;;;;;;2.05;0.90;;;;;;;25.03;52.70;101386.53;4999194;28;20038;-64
2023/07/08 05:46:46;;;;;;;1.05;0.80;;;;;;;25.24;52.44;101398.19;4993479;28;20026;-64
2023/07/08 05:49:11;;;;;;;1.48;0.90;;;;;;;25.48;51.65;101394.75;4992180;28;20693;-65
2023/07/08 05:51:37;;;;;;;4.75;0.73;;;;;;;25.55;51.90;101402.06;4993793;28;20030;-66
2023/07/08 05:54:03;;;;;;;0.80;0.70;;;;;;;25.81;51.32;101403.63;4992795;28;20113;-64
2023/07/08 05:56:30;;;;;;;0.85;0.68;;;;;;;25.98;50.73;101399.53;4992919;28;20444;-65
2023/07/08 05:58:56;;;;;;;1.35;0.90;;;;;;;26.00;50.53;101396.34;4986906;28;20460;-64
2023/07/08 06:01:21;;;;;;;0.98;0.73;;;;;;;26.17;50.76;101398.56;4968990;28;20172;-64
2023/07/08 06:03:47;;;;;;;0.98;0.73;;;;;;;26.30;49.91;101387.50;4991136;28;20497;-65
2023/07/08 06:06:12;;;;;;;0.80;0.70;;;;;;;26.34;49.46;101391.69;4978666;28;20049;-65
2023/07/08 06:08:39;;;;;;;0.90;0.70;;;;;;;26.30;48.98;101401.31;4990633;28;20046;-65
2023/07/08 06:11:04;;;;;;;1.00;0.90;;;;;;;26.46;49.28;101393.66;4998854;28;20022;-64
2023/07/08 06:13:30;;;;;;;0.90;0.60;;;;;;;26.58;49.48;101406.66;4992501;28;20031;-64
2023/07/08 06:15:55;;;;;;;0.98;0.85;;;;;;;26.68;49.19;101399.22;4990975;28;20498;-64
2023/07/08 06:18:22;;;;;;;1.17;0.88;;;;;;;26.66;48.56;101393.38;4975539;28;20100;-63
2023/07/08 06:20:52;;;;;;;0.90;0.68;;;;;;;26.69;49.42;101403.56;4993317;28;20038;-64
2023/07/08 06:23:18;;;;;;;0.70;0.70;;;;;;;26.82;49.47;101406.31;4992138;28;20562;-64
2023/07/08 06:25:43;;;;;;;1.02;0.80;;;;;;;26.93;48.47;101412.22;4957410;28;20282;-65
2023/07/08 06:28:08;;;;;;;0.90;0.68;;;;;;;26.90;48.05;101410.38;4986793;28;20086;-64
2023/07/08 06:30:34;;;;;;;0.95;0.77;;;;;;;26.90;49.06;101397.31;4980612;28;20081;-63
2023/07/08 06:32:59;;;;;;;1.45;0.82;;;;;;;27.08;48.62;101402.97;5000514;28;20537;-64
2023/07/08 06:35:25;;;;;;;1.02;0.75;;;;;;;27.12;47.97;101408.41;4999469;28;20471;-64
2023/07/08 06:37:50;;;;;;;1.27;0.90;;;;;;;26.96;48.10;101405.81;4992592;28;20383;-64
2023/07/08 06:40:17;;;;;;;0.95;0.50;;;;;;;27.13;48.23;101407.94;4986242;28;20050;-64
2023/07/08 06:42:43;;;;;;;1.50;0.75;;;;;;;27.15;48.89;101413.03;4972656;28;20034;-63
2023/07/08 06:45:30;;;;;;;0.93;0.82;;;;;;;27.27;48.32;101410.22;4956056;28;20501;-66
2023/07/08 06:47:55;;;;;;;1.25;0.73;;;;;;;27.34;48.79;101401.66;4973005;28;20054;-63
2023/07/08 06:50:20;;;;;;;1.67;1.10;;;;;;;27.39;47.33;101398.31;4974273;28;20114;-64
2023/07/08 06:52:46;;;;;;;1.08;0.70;;;;;;;27.43;47.63;101400.94;4974149;28;20042;-65
2023/07/08 06:55:12;;;;;;;1.17;0.90;;;;;;;27.36;48.33;101403.97;5004137;28;20025;-64
2023/07/08 06:57:38;;;;;;;2.13;0.80;;;;;;;27.37;48.50;101400.00;4995576;28;20553;-64
2023/07/08 07:00:07;;;;;;;0.80;0.80;;;;;;;27.59;49.92;101397.97;4975114;28;20101;-64
2023/07/08 07:02:33;;;;;;;0.75;0.70;;;;;;;27.75;48.67;101399.75;4991201;28;20030;-63
2023/07/08 07:04:58;;;;;;;0.90;0.77;;;;;;;27.90;48.02;101395.97;4992465;28;20057;-63
2023/07/08 07:07:24;;;;;;;2.65;0.85;;;;;;;28.03;47.13;101398.66;4991109;28;20042;-63
2023/07/08 07:09:49;;;;;;;1.17;0.93;;;;;;;27.91;47.94;101397.50;5000546;28;20022;-64
2023/07/08 07:12:15;;;;;;;1.10;0.60;;;;;;;27.92;47.89;101393.50;4991614;28;20038;-67
2023/07/08 07:14:40;;;;;;;1.33;0.80;;;;;;;28.00;47.22;101391.25;4992361;28;20101;-64
2023/07/08 07:17:05;;;;;;;0.70;0.60;;;;;;;28.09;48.89;101389.28;4991469;28;20026;-64
2023/07/08 07:19:31;;;;;;;1.38;0.70;;;;;;;28.13;48.71;101392.69;4991873;28;20041;-64
2023/07/08 07:21:56;;;;;;;1.67;0.70;;;;;;;28.06;47.48;101392.97;4991150;28;20041;-63
2023/07/08 07:24:22;;;;;;;1.00;0.80;;;;;;;28.13;47.03;101400.22;4991824;28;20018;-64
2023/07/08 07:26:47;;;;;;;0.80;0.75;;;;;;;28.26;48.15;101401.66;4991935;28;20046;-66
2023/07/08 07:29:16;;;;;;;1.65;0.90;;;;;;;28.34;46.93;101391.81;4992946;28;20379;-63
2023/07/08 07:31:42;;;;;;;3.25;0.98;;;;;;;28.46;47.88;101390.91;4985073;28;20672;-65
2023/07/08 07:34:08;;;;;;;1.38;1.17;;;;;;;28.63;48.23;101394.19;5001987;28;20038;-67
2023/07/08 07:36:34;;;;;;;0.95;0.77;;;;;;;28.84;49.13;101398.06;4995806;28;20038;-64
2023/07/08 07:38:59;;;;;;;3.28;0.80;;;;;;;28.96;46.10;101395.13;4990335;28;20068;-63
2023/07/08 07:41:25;;;;;;;1.02;0.80;;;;;;;29.08;46.26;101390.66;4991336;28;20038;-63
2023/07/08 07:43:50;;;;;;;1.58;0.90;;;;;;;28.84;45.41;101392.53;4979957;28;20066;-64
2023/07/08 07:46:16;;;;;;;0.52;0.52;;;;;;;29.07;46.28;101394.66;4973994;28;20092;-66
2023/07/08 07:48:42;;;;;;;1.02;0.80;;;;;;;29.29;45.88;101387.72;4973421;28;20030;-65
2023/07/08 07:51:12;;;;;;;0.70;0.70;;;;;;;29.45;44.97;101396.94;4991172;28;20432;-63
2023/07/08 07:53:38;;;;;;;1.67;1.07;;;;;;;29.41;46.04;101399.88;4993336;28;20152;-64
2023/07/08 07:56:07;;;;;;;0.75;0.70;;;;;;;29.53;45.85;101385.03;4993180;28;20473;-64
2023/07/08 07:58:32;;;;;;;0.90;0.70;;;;;;;29.73;45.44;101393.66;4982386;28;20102;-65
2023/07/08 08:00:58;;;;;;;1.45;0.70;;;;;;;29.87;44.74;101379.06;4978328;28;20073;-64
2023/07/08 08:03:24;;;;;;;0.77;0.68;;;;;;;30.00;45.21;101384.44;4996813;28;20108;-66
2023/07/08 08:05:49;;;;;;;1.17;0.90;;;;;;;30.12;45.16;101395.31;4992174;28;20032;-64
2023/07/08 08:08:15;;;;;;;1.08;0.90;;;;;;;29.86;43.36;101383.09;4978086;28;20072;-66
2023/07/08 08:10:42;;;;;;;1.17;0.70;;;;;;;29.96;44.59;101390.16;4990553;28;20026;-64
2023/07/08 08:13:08;;;;;;;1.33;0.75;;;;;;;30.07;45.60;101384.84;4989739;28;20438;-64
2023/07/08 08:15:33;;;;;;;1.63;1.20;;;;;;;30.27;44.81;101381.50;4989400;28;20037;-64
2023/07/08 08:17:59;;;;;;;0.80;0.52;;;;;;;30.42;45.61;101381.56;4974160;28;20026;-66
2023/07/08 08:20:25;;;;;;;0.88;0.52;;;;;;;30.50;44.73;101382.75;4989707;28;20434;-64
2023/07/08 08:22:51;;;;;;;0.82;0.80;;;;;;;30.67;42.53;101384.63;4987613;28;20057;-64
2023/07/08 08:25:18;;;;;;;1.00;0.80;;;;;;;30.38;42.39;101387.31;4956742;28;20049;-65
2023/07/08 08:27:43;;;;;;;2.60;0.80;;;;;;;30.46;43.17;101394.06;4990331;28;20117;-64
2023/07/08 08:30:10;;;;;;;1.52;0.90;;;;;;;30.62;42.70;101390.88;4972499;28;20118;-65
2023/07/08 08:32:35;;;;;;;0.90;0.80;;;;;;;30.78;42.13;101395.22;4985236;28;20154;-65
2023/07/08 08:35:01;;;;;;;0.85;0.77;;;;;;;30.87;43.46;101400.75;4992061;28;20058;-64
2023/07/08 08:37:27;;;;;;;1.23;0.75;;;;;;;31.01;41.60;101388.88;4971983;28;20395;-64
2023/07/08 08:39:52;;;;;;;0.80;0.60;;;;;;;31.05;42.23;101386.66;4988795;28;20034;-64
2023/07/08 08:42:34;;;;;;;0.77;0.70;;;;;;;31.32;41.35;101391.19;4989287;28;20052;-63
2023/07/08 08:45:02;;;;;;;1.05;0.80;;;;;;;31.38;42.17;101394.88;4990199;28;20034;-65
2023/07/08 08:47:37;;;;;;;1.77;0.70;;;;;;;31.47;42.40;101392.00;4986228;28;20148;-64
2023/07/08 08:50:28;;;;;;;1.85;0.90;;;;;;;31.44;41.51;101402.06;5103543;22;20054;-58
2023/07/08 08:52:56;;;;;;;0.90;0.68;;;;;;;31.60;41.04;101401.59;5001601;28;20081;-59
2023/07/08 08:55:24;;;;;;;1.10;1.00;;;;;;;31.60;41.27;101403.59;5011785;28;20443;-59
2023/07/08 08:57:59;;;;;;;0.80;0.65;;;;;;;31.81;40.92;101399.63;5012188;28;20025;-58
2023/07/08 09:00:55;;;;;;;1.02;0.52;;;;;;;31.89;40.63;101403.56;5009345;28;20473;-58
2023/07/08 09:03:39;;;;;;;2.03;0.90;;;;;;;32.01;39.80;101396.16;4995896;28;20037;-61
2023/07/08 09:06:22;;;;;;;1.13;1.02;;;;;;;32.20;40.39;101403.78;5011480;28;20042;-59
2023/07/08 09:08:50;;;;;;;1.35;0.90;;;;;;;32.28;39.92;101404.94;4994441;28;20034;-52
2023/07/08 09:11:40;;;;;;;2.53;1.42;;;;;;;32.32;39.96;101390.75;5000695;28;20136;-57
2023/07/08 09:14:36;;;;;;;0.73;0.60;;;;;;;32.37;39.71;101379.69;5002891;28;20179;-57
2023/07/08 09:17:01;;;;;;;1.00;0.80;;;;;;;32.64;40.36;101392.47;4987001;28;20437;-58
2023/07/08 09:19:40;;;;;;;0.60;0.60;;;;;;;32.74;39.20;101385.47;5008402;28;20080;-59
2023/07/08 09:22:14;;;;;;;0.80;0.60;;;;;;;32.59;37.66;101379.22;5023865;28;20045;-59
2023/07/08 09:24:40;;;;;;;0.75;0.70;;;;;;;32.63;38.86;101391.72;5009446;28;20034;-58
2023/07/08 09:27:05;;;;;;;1.20;0.70;;;;;;;32.48;39.13;101384.66;4993432;28;20461;-58
2023/07/08 09:29:32;;;;;;;0.55;0.55;;;;;;;32.60;40.02;101384.31;5009025;28;20018;-55
2023/07/08 09:32:00;;;;;;;1.10;0.70;;;;;;;32.37;38.26;101384.47;5007549;28;20074;-56
2023/07/08 09:34:40;;;;;;;1.50;0.90;;;;;;;32.47;38.51;101383.91;5001740;28;20120;-55
2023/07/08 09:37:23;;;;;;;1.58;0.85;;;;;;;32.70;38.69;101382.13;4999623;28;20057;-59
2023/07/08 09:39:49;;;;;;;1.10;1.00;;;;;;;32.99;38.46;101379.19;5006262;28;20030;-60
2023/07/08 09:42:35;;;;;;;9.63;0.80;;;;;;;33.17;38.23;101378.09;5011869;28;20033;-60
2023/07/08 09:45:13;;;;;;;0.88;0.80;;;;;;;33.36;38.03;101380.03;4932971;29;20044;-58
2023/07/08 09:47:40;;;;;;;1.23;0.70;;;;;;;33.53;37.30;101380.19;4903961;29;20138;-60
2023/07/08 09:50:18;;;;;;;1.25;0.80;;;;;;;33.67;36.24;101370.91;4916898;29;20148;-57
2023/07/08 09:52:43;;;;;;;1.20;0.80;;;;;;;33.72;36.98;101372.22;4932381;29;20051;-59
2023/07/08 09:55:12;;;;;;;8.43;0.82;;;;;;;33.96;36.70;101372.63;4916023;29;20027;-60
2023/07/08 09:57:38;;;;;;;5.45;0.80;;;;;;;33.87;36.90;101370.03;4930752;29;20040;-60
2023/07/08 10:00:11;;;;;;;1.55;0.70;;;;;;;34.05;37.46;101378.06;4932299;29;20040;-60
2023/07/08 10:02:50;;;;;;;3.85;0.90;;;;;;;33.85;36.21;101375.34;4917019;29;20063;-60
2023/07/08 10:05:24;;;;;;;0.70;0.70;;;;;;;33.97;36.22;101377.75;4929530;29;20080;-58
2023/07/08 10:07:54;;;;;;;1.67;1.15;;;;;;;34.28;35.53;101366.47;4913373;29;20139;-59
2023/07/08 10:10:28;;;;;;;0.93;0.82;;;;;;;34.04;36.58;101370.91;4921253;29;20075;-57
2023/07/08 10:12:58;;;;;;;1.92;0.60;;;;;;;34.28;37.14;101363.66;4933031;29;20609;-57
2023/07/08 10:15:36;;;;;;;0.90;0.90;;;;;;;34.42;36.96;101367.53;4929772;29;20167;-56
2023/07/08 10:18:02;;;;;;;1.85;0.80;;;;;;;34.41;34.66;101371.63;4922872;29;20063;-58
2023/07/08 10:20:54;;;;;;;1.20;0.75;;;;;;;34.42;36.34;101361.94;4940185;29;20039;-57
2023/07/08 10:23:28;;;;;;;1.40;0.80;;;;;;;34.61;35.43;101362.31;5005131;28;20551;-58
2023/07/08 10:26:13;;;;;;;0.90;0.63;;;;;;;34.66;35.98;101367.16;4997093;28;20440;-58
2023/07/08 10:28:48;;;;;;;1.23;0.90;;;;;;;34.54;35.29;101369.91;5008468;28;20104;-59
2023/07/08 10:31:19;;;;;;;1.23;0.90;;;;;;;34.57;34.52;101365.34;5010222;28;20038;-59
2023/07/08 10:34:35;;;;;;;0.60;0.60;;;;;;;34.90;35.49;101357.00;4998472;28;20026;-60
2023/07/08 10:37:39;;;;;;;0.73;0.60;;;;;;;34.93;35.98;101358.81;4931035;29;20039;-59
2023/07/08 10:40:19;;;;;;;0.60;0.57;;;;;;;35.24;35.25;101357.84;4999395;28;20038;-58
2023/07/08 10:42:56;;;;;;;9.18;1.15;;;;;;;35.36;36.23;101356.59;5002406;28;20456;-60
2023/07/08 10:45:34;;;;;;;0.75;0.68;;;;;;;35.52;34.86;101358.66;5005913;28;20428;-58
2023/07/08 10:48:14;;;;;;;0.85;0.70;;;;;;;35.58;34.69;101358.66;5011342;28;20050;-60
2023/07/08 10:50:55;;;;;;;1.02;0.70;;;;;;;35.73;35.42;101359.13;5008355;28;20034;-60
2023/07/08 10:53:48;;;;;;;0.80;0.70;;;;;;;35.85;34.54;101352.97;5005681;28;20511;-60
2023/07/08 10:56:43;;;;;;;3.67;1.40;;;;;;;35.95;34.76;101353.47;5007876;28;20123;-60
2023/07/08 10:59:37;;;;;;;2.47;0.77;;;;;;;35.79;33.78;101352.22;5000027;28;20034;-61
2023/07/08 11:02:15;;;;;;;1.15;0.70;;;;;;;36.03;34.30;101346.84;5001865;28;20251;-61
2023/07/08 11:04:52;;;;;;;0.75;0.60;;;;;;;36.16;34.50;101341.41;5003311;28;20030;-61
2023/07/08 11:07:26;;;;;;;2.17;0.85;;;;;;;36.31;34.30;101343.94;4979857;28;20041;-60
2023/07/08 11:09:57;;;;;;;15.52;0.95;;;;;;;36.34;34.52;101347.72;4986164;28;20520;-62
2023/07/08 11:12:36;;;;;;;2.53;0.93;;;;;;;36.34;33.71;101339.31;4984181;28;20562;-61
2023/07/08 11:15:15;;;;;;;1.10;0.60;;;;;;;36.45;33.70;101345.66;4994703;28;20472;-62
2023/07/08 11:18:00;;;;;;;4.82;0.60;;;;;;;36.35;33.18;101341.63;5002747;28;20100;-61
2023/07/08 11:20:45;;;;;;;6.18;0.85;;;;;;;36.48;34.20;101335.44;5000184;28;20026;-61
2023/07/08 11:23:31;;;;;;;1.30;0.70;;;;;;;36.35;31.93;101330.38;4994700;28;20033;-58
2023/07/08 11:26:04;;;;;;;0.90;0.73;;;;;;;36.17;33.54;101330.97;5004055;28;20436;-58
2023/07/08 11:28:30;;;;;;;0.70;0.70;;;;;;;36.48;33.43;101327.78;4994865;28;20057;-60
2023/07/08 11:31:01;;;;;;;1.80;0.90;;;;;;;36.65;33.10;101331.25;5009807;28;20068;-61
2023/07/08 11:33:27;;;;;;;3.20;0.65;;;;;;;36.12;33.31;101324.09;4996438;28;20037;-60
2023/07/08 11:36:14;;;;;;;0.70;0.70;;;;;;;36.46;34.13;101327.53;5005307;28;20380;-60
2023/07/08 11:38:50;;;;;;;0.60;0.60;;;;;;;36.45;31.95;101320.38;4926937;29;20059;-60